Time;durP1;ratioP1;P1;durP2;ratioP2;P2;SDS_P1;SDS_P2;PMS_P1;PMS_P2;Temp;Humidity;BMP_temperature;BMP_pressure;BME280_temperature;BME280_humidity;BME280_pressure;Samples;Min_cycle;Max_cycle;Signal;HPM_P1;HPM_P2
2022/10/16 00:01:39;;;;;;;3.92;2.90;;;;;;;;;;5011265;28;20104;-42
2022/10/16 00:04:04;;;;;;;4.13;3.40;;;;;;;;;;5011021;28;20121;-46
2022/10/16 00:06:31;;;;;;;8.32;3.20;;;;;;;;;;5009572;28;20034;-45
2022/10/16 00:08:57;;;;;;;5.40;3.53;;;;;;;;;;5010267;28;20437;-43
2022/10/16 00:11:25;;;;;;;9.77;3.58;;;;;;;;;;5011408;28;20026;-43
2022/10/16 00:13:54;;;;;;;6.85;3.08;;;;;;;;;;5010022;28;20026;-44
2022/10/16 00:16:19;;;;;;;7.88;3.28;;;;;;;;;;5008501;28;20532;-44
2022/10/16 00:18:45;;;;;;;4.88;3.08;;;;;;;;;;5010220;28;20136;-44
2022/10/16 00:21:13;;;;;;;6.10;3.20;;;;;;;;;;5008115;28;20037;-44
2022/10/16 00:23:39;;;;;;;5.05;2.97;;;;;;;;;;5010989;28;20038;-43
2022/10/16 00:26:07;;;;;;;3.83;3.20;;;;;;;;;;5010186;28;20037;-43
2022/10/16 00:28:32;;;;;;;3.63;3.10;;;;;;;;;;5009896;28;20042;-44
2022/10/16 00:30:58;;;;;;;3.67;3.08;;;;;;;;;;5006676;28;20089;-46
2022/10/16 00:33:24;;;;;;;4.75;3.22;;;;;;;;;;5009123;28;20375;-45
2022/10/16 00:35:50;;;;;;;11.35;4.13;;;;;;;;;;5009498;28;20117;-44
2022/10/16 00:38:15;;;;;;;4.35;2.88;;;;;;;;;;5007772;28;20038;-42
2022/10/16 00:40:41;;;;;;;9.13;3.72;;;;;;;;;;5008003;28;20103;-44
2022/10/16 00:43:34;;;;;;;4.97;3.35;;;;;;;;;;5009824;28;20040;-46
2022/10/16 00:46:01;;;;;;;5.43;3.13;;;;;;;;;;4999878;28;20109;-43
2022/10/16 00:48:27;;;;;;;3.83;3.20;;;;;;;;;;5010633;28;20049;-45
2022/10/16 00:50:53;;;;;;;3.30;3.00;;;;;;;;;;5009140;28;20078;-44
2022/10/16 00:53:19;;;;;;;5.55;3.40;;;;;;;;;;5008082;28;20034;-42
2022/10/16 00:55:45;;;;;;;5.55;3.97;;;;;;;;;;5009801;28;20044;-43
2022/10/16 00:58:11;;;;;;;5.07;3.53;;;;;;;;;;5009595;28;20042;-43
2022/10/16 01:00:37;;;;;;;3.58;3.28;;;;;;;;;;5009688;28;20040;-45
2022/10/16 01:03:21;;;;;;;3.65;3.30;;;;;;;;;;5007825;28;20651;-42
2022/10/16 01:05:54;;;;;;;4.30;3.58;;;;;;;;;;5006193;28;20030;-43
2022/10/16 01:08:33;;;;;;;4.75;3.28;;;;;;;;;;5008091;28;20054;-45
2022/10/16 01:11:19;;;;;;;3.83;3.42;;;;;;;;;;5005279;28;20029;-44
2022/10/16 01:13:52;;;;;;;9.40;3.38;;;;;;;;;;5006260;28;20057;-44
2022/10/16 01:16:56;;;;;;;3.45;3.20;;;;;;;;;;5009970;28;20034;-46
2022/10/16 01:19:45;;;;;;;8.05;3.70;;;;;;;;;;4944815;28;20123;-46
2022/10/16 01:22:11;;;;;;;5.25;3.45;;;;;;;;;;4947582;28;20043;-42
2022/10/16 01:24:43;;;;;;;6.65;3.40;;;;;;;;;;4948059;28;20061;-42
2022/10/16 01:27:26;;;;;;;5.63;3.22;;;;;;;;;;4947466;28;20040;-45
2022/10/16 01:29:59;;;;;;;3.60;3.30;;;;;;;;;;4930504;29;20155;-45
2022/10/16 01:32:41;;;;;;;3.38;3.08;;;;;;;;;;4949059;28;20121;-43
2022/10/16 01:35:13;;;;;;;;;;;;;;;;;;4949696;28;20058;-42
2022/10/16 01:37:48;;;;;;;6.55;2.95;;;;;;;;;;4949493;28;20026;-44
2022/10/16 01:40:17;;;;;;;4.57;3.08;;;;;;;;;;4949347;28;20046;-43
2022/10/16 01:42:48;;;;;;;4.40;2.92;;;;;;;;;;4945765;28;20051;-44
2022/10/16 01:45:17;;;;;;;5.72;2.75;;;;;;;;;;4949075;28;20075;-42
2022/10/16 01:47:45;;;;;;;5.20;3.17;;;;;;;;;;4946657;28;20069;-43
2022/10/16 01:50:14;;;;;;;6.07;3.10;;;;;;;;;;4949961;28;20094;-43
2022/10/16 01:52:43;;;;;;;5.55;3.28;;;;;;;;;;4947429;28;20051;-42
2022/10/16 01:55:12;;;;;;;6.68;2.80;;;;;;;;;;4980652;28;20491;-44
2022/10/16 01:57:42;;;;;;;5.80;3.30;;;;;;;;;;5007510;28;20046;-44
2022/10/16 02:00:11;;;;;;;4.97;3.22;;;;;;;;;;5010096;28;20033;-47
2022/10/16 02:02:39;;;;;;;3.92;3.28;;;;;;;;;;5004973;28;20795;-46
2022/10/16 02:05:14;;;;;;;3.10;2.80;;;;;;;;;;5007753;28;20022;-45
2022/10/16 02:07:41;;;;;;;6.55;3.00;;;;;;;;;;5008654;28;20076;-44
2022/10/16 02:10:08;;;;;;;4.80;3.20;;;;;;;;;;5007322;28;20500;-43
2022/10/16 02:12:39;;;;;;;12.05;3.38;;;;;;;;;;5005647;28;20038;-43
2022/10/16 02:15:05;;;;;;;7.38;4.20;;;;;;;;;;5008498;28;20128;-42
2022/10/16 02:17:30;;;;;;;5.55;3.42;;;;;;;;;;5007713;28;20099;-44
2022/10/16 02:19:57;;;;;;;5.32;3.10;;;;;;;;;;5009127;28;20022;-46
2022/10/16 02:22:48;;;;;;;3.03;2.83;;;;;;;;;;5004973;28;20117;-42
2022/10/16 02:25:26;;;;;;;3.65;3.08;;;;;;;;;;5008549;28;20037;-44
2022/10/16 02:28:03;;;;;;;6.63;3.50;;;;;;;;;;5003908;28;20569;-41
2022/10/16 02:30:59;;;;;;;4.95;3.30;;;;;;;;;;5009749;28;20041;-43
2022/10/16 02:33:27;;;;;;;4.38;3.38;;;;;;;;;;4992710;28;20042;-42
2022/10/16 02:35:54;;;;;;;6.65;3.55;;;;;;;;;;5036930;28;20033;-44
2022/10/16 02:38:21;;;;;;;4.18;3.05;;;;;;;;;;5006460;28;20056;-45
2022/10/16 02:40:46;;;;;;;3.30;3.00;;;;;;;;;;5008148;28;20502;-44
2022/10/16 02:43:13;;;;;;;6.05;3.03;;;;;;;;;;5003999;28;20046;-42
2022/10/16 02:45:38;;;;;;;3.40;3.10;;;;;;;;;;5007506;28;20024;-42
2022/10/16 02:48:04;;;;;;;5.30;3.28;;;;;;;;;;5008720;28;20034;-43
2022/10/16 02:50:29;;;;;;;7.22;3.10;;;;;;;;;;5005899;28;22075;-44
2022/10/16 02:52:55;;;;;;;5.70;2.95;;;;;;;;;;5006518;28;20100;-44
2022/10/16 02:55:20;;;;;;;3.42;3.13;;;;;;;;;;5008977;28;20037;-44
2022/10/16 02:57:45;;;;;;;3.33;3.10;;;;;;;;;;5007513;28;20041;-43
2022/10/16 03:00:13;;;;;;;8.65;3.13;;;;;;;;;;5008073;28;20071;-43
2022/10/16 03:02:39;;;;;;;3.42;3.03;;;;;;;;;;5004689;28;20049;-42
2022/10/16 03:05:05;;;;;;;2.90;2.63;;;;;;;;;;5008373;28;20399;-43
2022/10/16 03:07:30;;;;;;;3.30;3.00;;;;;;;;;;5007102;28;20046;-45
2022/10/16 03:09:55;;;;;;;4.45;3.20;;;;;;;;;;5007957;28;20113;-46
2022/10/16 03:12:21;;;;;;;4.72;3.55;;;;;;;;;;5006765;28;20050;-44
2022/10/16 03:14:47;;;;;;;3.60;3.00;;;;;;;;;;5006640;28;20034;-46
2022/10/16 03:17:12;;;;;;;5.20;3.25;;;;;;;;;;5005108;28;20066;-42
2022/10/16 03:19:38;;;;;;;5.45;3.40;;;;;;;;;;5006969;28;20028;-44
2022/10/16 03:22:04;;;;;;;7.75;3.15;;;;;;;;;;5006501;28;20060;-42
2022/10/16 03:24:29;;;;;;;4.38;3.50;;;;;;;;;;5006377;28;20470;-46
2022/10/16 03:26:55;;;;;;;3.38;2.97;;;;;;;;;;5004713;28;20049;-43
2022/10/16 03:29:20;;;;;;;6.68;3.30;;;;;;;;;;5009282;28;20105;-42
2022/10/16 03:31:45;;;;;;;3.97;2.90;;;;;;;;;;5005059;28;20049;-43
2022/10/16 03:34:11;;;;;;;4.80;3.10;;;;;;;;;;5007378;28;20030;-45
2022/10/16 03:36:36;;;;;;;3.42;2.75;;;;;;;;;;5005902;28;20504;-45
2022/10/16 03:39:02;;;;;;;3.97;3.50;;;;;;;;;;5007793;28;20026;-43
2022/10/16 03:41:27;;;;;;;2.92;2.72;;;;;;;;;;5005436;28;20050;-46
2022/10/16 03:43:53;;;;;;;5.55;3.33;;;;;;;;;;5007664;28;20387;-44
2022/10/16 03:46:18;;;;;;;12.48;3.20;;;;;;;;;;5007291;28;20049;-44
2022/10/16 03:48:43;;;;;;;12.40;2.80;;;;;;;;;;5007055;28;21488;-44
2022/10/16 03:51:09;;;;;;;5.00;3.35;;;;;;;;;;5004931;28;20041;-45
2022/10/16 03:53:34;;;;;;;5.22;3.50;;;;;;;;;;5005172;28;20038;-43
2022/10/16 03:56:00;;;;;;;5.38;3.10;;;;;;;;;;5008240;28;20036;-43
2022/10/16 03:58:25;;;;;;;6.60;3.20;;;;;;;;;;5007960;28;20045;-42
2022/10/16 04:00:50;;;;;;;5.20;3.55;;;;;;;;;;5006890;28;20676;-46
2022/10/16 04:03:17;;;;;;;7.20;3.30;;;;;;;;;;5005725;28;20050;-45
2022/10/16 04:05:42;;;;;;;3.40;3.10;;;;;;;;;;5006405;28;20490;-42
2022/10/16 04:08:08;;;;;;;5.45;3.15;;;;;;;;;;5007546;28;20053;-42
2022/10/16 04:10:33;;;;;;;3.28;2.97;;;;;;;;;;5008013;28;20061;-43
2022/10/16 04:12:58;;;;;;;4.65;3.45;;;;;;;;;;5006177;28;20034;-43
2022/10/16 04:15:25;;;;;;;5.68;3.55;;;;;;;;;;5007102;28;20029;-43
2022/10/16 04:17:51;;;;;;;5.50;3.83;;;;;;;;;;5005946;28;20388;-45
2022/10/16 04:20:17;;;;;;;4.85;3.38;;;;;;;;;;5007172;28;20076;-44
2022/10/16 04:22:43;;;;;;;5.03;3.55;;;;;;;;;;5007368;28;20045;-43
2022/10/16 04:25:09;;;;;;;4.18;3.50;;;;;;;;;;5003396;28;20026;-43
2022/10/16 04:27:34;;;;;;;5.90;3.60;;;;;;;;;;5010281;28;20478;-45
2022/10/16 04:30:00;;;;;;;3.90;3.20;;;;;;;;;;5011869;28;20018;-44
2022/10/16 04:32:26;;;;;;;6.43;4.00;;;;;;;;;;5008408;28;20586;-44
2022/10/16 04:34:51;;;;;;;3.50;3.08;;;;;;;;;;5011766;28;20069;-44
2022/10/16 04:37:16;;;;;;;4.05;3.17;;;;;;;;;;5008244;28;20080;-43
2022/10/16 04:39:42;;;;;;;4.38;3.60;;;;;;;;;;5011996;28;20022;-44
2022/10/16 04:42:07;;;;;;;5.75;3.30;;;;;;;;;;5009509;28;20052;-42
2022/10/16 04:44:33;;;;;;;3.47;3.17;;;;;;;;;;5010109;28;20034;-42
2022/10/16 04:46:58;;;;;;;3.92;3.15;;;;;;;;;;5009022;28;20064;-44
2022/10/16 04:49:23;;;;;;;6.20;3.53;;;;;;;;;;5010720;28;20045;-45
2022/10/16 04:51:49;;;;;;;4.30;3.25;;;;;;;;;;5009905;28;20054;-42
2022/10/16 04:54:14;;;;;;;5.55;3.50;;;;;;;;;;5009557;28;20030;-42
2022/10/16 04:56:46;;;;;;;3.92;3.55;;;;;;;;;;5010617;28;20040;-43
2022/10/16 04:59:13;;;;;;;4.43;3.72;;;;;;;;;;5009570;28;20041;-45
2022/10/16 05:01:38;;;;;;;6.88;3.30;;;;;;;;;;5007952;28;20049;-42
2022/10/16 05:04:04;;;;;;;4.18;3.30;;;;;;;;;;5009954;28;20030;-43
2022/10/16 05:06:29;;;;;;;6.30;3.85;;;;;;;;;;5011140;28;20037;-44
2022/10/16 05:08:54;;;;;;;6.28;3.50;;;;;;;;;;5009944;28;20059;-43
2022/10/16 05:11:20;;;;;;;3.75;3.28;;;;;;;;;;5011194;28;20026;-42
2022/10/16 05:13:45;;;;;;;6.05;3.50;;;;;;;;;;5010315;28;20033;-43
2022/10/16 05:16:11;;;;;;;4.65;3.38;;;;;;;;;;5010307;28;20046;-43
2022/10/16 05:18:36;;;;;;;4.43;3.35;;;;;;;;;;5008612;28;20049;-42
2022/10/16 05:21:02;;;;;;;4.15;3.38;;;;;;;;;;5010664;28;20033;-46
2022/10/16 05:23:27;;;;;;;7.20;3.83;;;;;;;;;;5005381;28;20130;-44
2022/10/16 05:25:58;;;;;;;3.88;3.50;;;;;;;;;;5010033;28;20022;-45
2022/10/16 05:28:24;;;;;;;7.13;3.83;;;;;;;;;;5009456;28;20034;-43
2022/10/16 05:30:50;;;;;;;6.47;3.58;;;;;;;;;;5010173;28;20026;-44
2022/10/16 05:33:16;;;;;;;10.15;3.97;;;;;;;;;;5007920;28;20060;-44
2022/10/16 05:35:41;;;;;;;3.83;3.47;;;;;;;;;;5009835;28;20033;-45
2022/10/16 05:38:06;;;;;;;4.43;3.58;;;;;;;;;;5008019;28;20109;-43
2022/10/16 05:40:32;;;;;;;6.15;3.60;;;;;;;;;;5010380;28;20052;-46
2022/10/16 05:42:57;;;;;;;3.58;3.28;;;;;;;;;;5008834;28;20050;-44
2022/10/16 05:45:23;;;;;;;5.07;3.40;;;;;;;;;;5009212;28;20026;-42
2022/10/16 05:47:48;;;;;;;3.60;3.15;;;;;;;;;;5008272;28;20042;-44
2022/10/16 05:50:13;;;;;;;5.15;3.55;;;;;;;;;;5010192;28;20040;-44
2022/10/16 05:52:39;;;;;;;4.00;3.38;;;;;;;;;;5008666;28;20050;-44
2022/10/16 05:55:05;;;;;;;4.28;3.22;;;;;;;;;;5009309;28;20033;-47
2022/10/16 05:57:31;;;;;;;4.25;3.63;;;;;;;;;;5008389;28;20038;-42
2022/10/16 05:59:56;;;;;;;5.65;3.15;;;;;;;;;;5008627;28;20049;-42
2022/10/16 06:02:21;;;;;;;3.28;2.97;;;;;;;;;;5006479;28;20045;-44
2022/10/16 06:04:47;;;;;;;4.53;3.42;;;;;;;;;;5006452;28;20103;-45
2022/10/16 06:07:12;;;;;;;4.43;3.13;;;;;;;;;;5008856;28;20061;-44
2022/10/16 06:09:37;;;;;;;5.47;3.25;;;;;;;;;;5009313;28;20036;-45
2022/10/16 06:12:03;;;;;;;4.63;3.00;;;;;;;;;;5009201;28;20412;-45
2022/10/16 06:14:28;;;;;;;3.72;3.30;;;;;;;;;;5009206;28;20065;-44
2022/10/16 06:16:53;;;;;;;3.28;2.97;;;;;;;;;;5003284;28;20034;-42
2022/10/16 06:19:19;;;;;;;3.92;3.15;;;;;;;;;;5009477;28;20088;-45
2022/10/16 06:21:44;;;;;;;5.22;3.45;;;;;;;;;;5009226;28;20380;-46
2022/10/16 06:24:10;;;;;;;6.20;3.30;;;;;;;;;;5007091;28;20026;-43
2022/10/16 06:26:35;;;;;;;4.18;3.42;;;;;;;;;;5008665;28;20037;-47
2022/10/16 06:29:01;;;;;;;7.50;3.30;;;;;;;;;;5008323;28;20383;-45
2022/10/16 06:31:30;;;;;;;6.78;3.70;;;;;;;;;;5007535;28;20033;-42
2022/10/16 06:33:56;;;;;;;7.53;3.25;;;;;;;;;;5005683;28;20029;-44
2022/10/16 06:36:22;;;;;;;5.78;3.72;;;;;;;;;;5007761;28;20116;-44
2022/10/16 06:38:48;;;;;;;6.03;3.38;;;;;;;;;;5008401;28;20037;-44
2022/10/16 06:41:16;;;;;;;4.38;3.25;;;;;;;;;;5008483;28;20113;-44
2022/10/16 06:43:41;;;;;;;4.88;3.55;;;;;;;;;;5004914;28;20442;-44
2022/10/16 06:46:10;;;;;;;6.05;3.40;;;;;;;;;;5007555;28;20108;-45
2022/10/16 06:48:36;;;;;;;4.15;3.42;;;;;;;;;;5006424;28;20438;-45
2022/10/16 06:51:08;;;;;;;11.07;3.45;;;;;;;;;;5009517;28;20026;-44
2022/10/16 06:53:35;;;;;;;7.13;3.28;;;;;;;;;;5009309;28;20450;-44
2022/10/16 06:56:09;;;;;;;4.18;3.20;;;;;;;;;;5008351;28;20026;-45
2022/10/16 06:58:34;;;;;;;5.53;3.25;;;;;;;;;;5006965;28;20160;-44
2022/10/16 07:00:59;;;;;;;6.13;3.55;;;;;;;;;;5007738;28;20387;-43
2022/10/16 07:03:25;;;;;;;7.18;3.25;;;;;;;;;;5005570;28;20513;-44
2022/10/16 07:05:50;;;;;;;5.00;3.28;;;;;;;;;;5006919;28;20083;-45
2022/10/16 07:08:16;;;;;;;6.60;3.30;;;;;;;;;;5008032;28;20037;-47
2022/10/16 07:10:41;;;;;;;4.30;3.40;;;;;;;;;;5008904;28;20058;-45
2022/10/16 07:13:07;;;;;;;6.32;4.00;;;;;;;;;;5008051;28;20044;-44
2022/10/16 07:15:33;;;;;;;6.30;3.40;;;;;;;;;;5006070;28;20034;-45
2022/10/16 07:17:59;;;;;;;4.97;3.90;;;;;;;;;;5006696;28;20041;-47
2022/10/16 07:20:24;;;;;;;12.55;3.85;;;;;;;;;;5006342;28;20040;-43
2022/10/16 07:22:50;;;;;;;6.00;3.55;;;;;;;;;;5005461;28;20513;-43
2022/10/16 07:25:15;;;;;;;4.43;3.53;;;;;;;;;;5007173;28;20125;-45
2022/10/16 07:27:41;;;;;;;6.35;3.70;;;;;;;;;;5007242;28;20049;-46
2022/10/16 07:30:07;;;;;;;5.68;3.28;;;;;;;;;;5005627;28;20114;-42
2022/10/16 07:32:32;;;;;;;4.57;3.05;;;;;;;;;;5008124;28;20070;-46
2022/10/16 07:34:57;;;;;;;5.57;3.50;;;;;;;;;;5006802;28;20083;-44
2022/10/16 07:37:23;;;;;;;5.80;3.38;;;;;;;;;;5004842;28;20050;-43
2022/10/16 07:39:48;;;;;;;5.45;4.05;;;;;;;;;;5005027;28;20022;-48
2022/10/16 07:42:13;;;;;;;4.43;3.40;;;;;;;;;;5006099;28;20042;-47
2022/10/16 07:44:39;;;;;;;4.80;3.97;;;;;;;;;;5005317;28;20029;-45
2022/10/16 07:47:05;;;;;;;4.93;3.40;;;;;;;;;;5007753;28;20069;-45
2022/10/16 07:49:30;;;;;;;6.32;3.38;;;;;;;;;;5004845;28;20221;-44
2022/10/16 07:51:56;;;;;;;6.28;3.72;;;;;;;;;;5006038;28;20084;-44
2022/10/16 07:54:21;;;;;;;10.48;3.55;;;;;;;;;;5006357;28;20242;-43
2022/10/16 07:56:47;;;;;;;6.00;3.67;;;;;;;;;;5003791;28;20486;-47
2022/10/16 07:59:12;;;;;;;4.28;3.47;;;;;;;;;;5008028;28;20424;-44
2022/10/16 08:01:37;;;;;;;5.55;3.45;;;;;;;;;;5008007;28;20030;-44
2022/10/16 08:04:03;;;;;;;5.22;3.65;;;;;;;;;;4996970;28;20499;-43
2022/10/16 08:06:28;;;;;;;7.97;3.75;;;;;;;;;;4996802;28;20038;-44
2022/10/16 08:08:55;;;;;;;3.97;3.58;;;;;;;;;;5009023;28;20017;-44
2022/10/16 08:11:21;;;;;;;4.43;3.40;;;;;;;;;;5011434;28;20022;-45
2022/10/16 08:13:46;;;;;;;8.82;3.50;;;;;;;;;;5009591;28;20076;-44
2022/10/16 08:16:12;;;;;;;5.32;3.67;;;;;;;;;;5010827;28;20038;-46
2022/10/16 08:18:39;;;;;;;8.32;3.70;;;;;;;;;;5006824;28;20610;-44
2022/10/16 08:21:11;;;;;;;6.93;3.45;;;;;;;;;;5007859;28;20030;-49
2022/10/16 08:23:36;;;;;;;7.25;4.18;;;;;;;;;;5010971;28;20180;-44
2022/10/16 08:26:05;;;;;;;12.52;4.00;;;;;;;;;;5010919;28;20096;-43
2022/10/16 08:28:30;;;;;;;4.75;3.75;;;;;;;;;;5010239;28;20130;-45
2022/10/16 08:30:59;;;;;;;8.10;3.78;;;;;;;;;;5008823;28;20026;-45
2022/10/16 08:33:25;;;;;;;6.25;3.33;;;;;;;;;;5010125;28;20030;-49
2022/10/16 08:35:54;;;;;;;5.03;3.40;;;;;;;;;;5006837;28;20033;-44
2022/10/16 08:38:20;;;;;;;6.13;3.30;;;;;;;;;;5008302;28;20502;-43
2022/10/16 08:40:46;;;;;;;5.90;3.25;;;;;;;;;;5011473;28;20572;-45
2022/10/16 08:43:21;;;;;;;5.72;3.17;;;;;;;;;;5010484;28;20119;-43
2022/10/16 08:46:05;;;;;;;5.70;3.40;;;;;;;;;;5006287;28;20034;-49
2022/10/16 08:48:48;;;;;;;4.60;3.03;;;;;;;;;;5009015;28;20064;-48
2022/10/16 08:51:21;;;;;;;10.52;4.15;;;;;;;;;;5009722;28;20037;-49
2022/10/16 08:53:57;;;;;;;5.22;3.20;;;;;;;;;;5010386;28;20049;-46
2022/10/16 08:56:24;;;;;;;4.53;3.17;;;;;;;;;;5004586;28;20037;-45
2022/10/16 08:58:49;;;;;;;3.47;2.83;;;;;;;;;;5002065;28;20026;-43
2022/10/16 09:01:18;;;;;;;7.10;3.33;;;;;;;;;;4999485;28;20537;-44
2022/10/16 09:04:02;;;;;;;5.07;3.08;;;;;;;;;;4999901;28;20041;-43
2022/10/16 09:06:50;;;;;;;4.72;3.55;;;;;;;;;;5004321;28;20088;-43
2022/10/16 09:09:18;;;;;;;6.50;3.35;;;;;;;;;;5003558;28;20045;-44
2022/10/16 09:12:02;;;;;;;9.40;3.40;;;;;;;;;;4999739;28;20107;-44
2022/10/16 09:15:00;;;;;;;3.75;2.88;;;;;;;;;;5004206;28;20494;-44
2022/10/16 09:17:36;;;;;;;4.07;3.15;;;;;;;;;;4958542;28;20129;-44
2022/10/16 09:20:18;;;;;;;6.03;3.13;;;;;;;;;;4953391;28;20043;-44
2022/10/16 09:22:43;;;;;;;5.25;3.28;;;;;;;;;;4956092;28;20042;-44
2022/10/16 09:25:15;;;;;;;5.53;2.78;;;;;;;;;;4961026;28;20533;-43
2022/10/16 09:27:41;;;;;;;;;;;;;;;;;;4958187;28;20038;-44
2022/10/16 09:30:13;;;;;;;5.15;3.20;;;;;;;;;;4963497;28;19969;-45
2022/10/16 09:32:40;;;;;;;4.32;3.22;;;;;;;;;;4958704;28;20053;-43
2022/10/16 09:35:12;;;;;;;8.13;4.00;;;;;;;;;;4954560;28;20073;-48
2022/10/16 09:37:38;;;;;;;7.20;3.30;;;;;;;;;;4957386;28;20066;-46
2022/10/16 09:40:04;;;;;;;6.68;2.92;;;;;;;;;;4956764;28;20190;-43
2022/10/16 09:42:36;;;;;;;4.90;3.05;;;;;;;;;;4953557;28;20041;-44
2022/10/16 09:45:03;;;;;;;;;;;;;;;;;;4955210;28;20042;-47
2022/10/16 09:47:31;;;;;;;5.70;3.33;;;;;;;;;;4958434;28;19998;-45
2022/10/16 09:49:59;;;;;;;9.65;3.28;;;;;;;;;;4961569;28;20070;-44
2022/10/16 09:52:25;;;;;;;5.10;2.95;;;;;;;;;;4963779;28;20042;-44
2022/10/16 09:54:56;;;;;;;3.80;3.25;;;;;;;;;;5002452;28;20129;-44
2022/10/16 09:57:22;;;;;;;7.00;3.03;;;;;;;;;;5002712;28;20044;-43
2022/10/16 09:59:48;;;;;;;7.35;3.10;;;;;;;;;;4999586;28;20101;-44
2022/10/16 10:02:16;;;;;;;5.80;3.00;;;;;;;;;;5000060;28;20068;-44
2022/10/16 10:04:48;;;;;;;7.78;3.10;;;;;;;;;;4999123;28;20079;-45
2022/10/16 10:07:23;;;;;;;6.40;3.53;;;;;;;;;;5002822;28;20423;-44
2022/10/16 10:09:49;;;;;;;4.97;3.58;;;;;;;;;;5000974;28;20021;-44
2022/10/16 10:12:22;;;;;;;3.55;3.13;;;;;;;;;;4999763;28;20495;-44
2022/10/16 10:14:50;;;;;;;7.05;3.30;;;;;;;;;;5006315;28;20504;-44
2022/10/16 10:17:21;;;;;;;4.47;2.90;;;;;;;;;;5004550;28;20050;-43
2022/10/16 10:20:13;;;;;;;9.98;3.38;;;;;;;;;;5006229;28;20125;-44
2022/10/16 10:22:38;;;;;;;4.25;3.17;;;;;;;;;;5008544;28;20168;-45
2022/10/16 10:25:13;;;;;;;9.07;3.15;;;;;;;;;;5005845;28;20104;-44
2022/10/16 10:28:02;;;;;;;4.25;2.90;;;;;;;;;;5004884;28;20030;-44
2022/10/16 10:30:49;;;;;;;5.00;3.20;;;;;;;;;;5009009;28;20022;-43
2022/10/16 10:33:57;;;;;;;5.40;3.20;;;;;;;;;;5005463;28;20045;-44
2022/10/16 10:36:34;;;;;;;4.43;2.80;;;;;;;;;;4964093;28;20042;-43
2022/10/16 10:39:09;;;;;;;4.75;3.03;;;;;;;;;;4967328;28;20039;-45
2022/10/16 10:41:56;;;;;;;4.90;2.60;;;;;;;;;;4965077;28;20097;-43
2022/10/16 10:45:12;;;;;;;4.78;3.35;;;;;;;;;;4964941;28;20050;-44
2022/10/16 10:48:06;;;;;;;7.63;2.90;;;;;;;;;;4900666;29;20045;-45
2022/10/16 10:50:50;;;;;;;9.23;2.53;;;;;;;;;;4907184;29;20469;-44
2022/10/16 10:53:56;;;;;;;4.53;2.28;;;;;;;;;;4908063;29;20127;-46
2022/10/16 10:56:41;;;;;;;5.63;2.80;;;;;;;;;;4906051;29;20043;-43
2022/10/16 10:59:27;;;;;;;4.00;2.88;;;;;;;;;;4900514;29;20730;-44
2022/10/16 11:01:52;;;;;;;4.20;2.42;;;;;;;;;;4905303;29;20044;-44
2022/10/16 11:04:37;;;;;;;3.28;2.40;;;;;;;;;;4907685;29;20044;-47
2022/10/16 11:07:14;;;;;;;7.40;2.35;;;;;;;;;;4912379;29;20425;-48
2022/10/16 11:09:44;;;;;;;4.40;2.30;;;;;;;;;;4918713;29;20123;-43
2022/10/16 11:12:18;;;;;;;8.45;2.33;;;;;;;;;;4924541;29;20409;-47
2022/10/16 11:15:04;;;;;;;3.20;2.40;;;;;;;;;;4915656;29;20039;-44
2022/10/16 11:17:41;;;;;;;3.80;2.42;;;;;;;;;;4916657;29;20051;-45
2022/10/16 11:20:12;;;;;;;5.50;2.33;;;;;;;;;;4923995;29;20504;-44
2022/10/16 11:22:39;;;;;;;6.32;2.45;;;;;;;;;;4945192;28;21004;-49
2022/10/16 11:25:22;;;;;;;3.58;2.28;;;;;;;;;;5000943;28;20038;-45
2022/10/16 11:27:54;;;;;;;6.78;2.40;;;;;;;;;;5003753;28;20041;-45
2022/10/16 11:30:26;;;;;;;9.68;2.78;;;;;;;;;;5003230;28;20483;-43
2022/10/16 11:33:10;;;;;;;3.38;2.20;;;;;;;;;;5001828;28;20126;-45
2022/10/16 11:35:42;;;;;;;5.30;2.47;;;;;;;;;;5000286;28;20038;-43
2022/10/16 11:38:31;;;;;;;5.63;2.38;;;;;;;;;;5002956;28;20038;-45
2022/10/16 11:41:02;;;;;;;5.95;2.90;;;;;;;;;;5007692;28;20071;-47
2022/10/16 11:43:48;;;;;;;2.63;2.20;;;;;;;;;;5003015;28;20038;-44
2022/10/16 11:46:21;;;;;;;2.75;2.20;;;;;;;;;;5000843;28;20029;-44
2022/10/16 11:49:11;;;;;;;3.45;2.17;;;;;;;;;;4996946;28;20070;-47
2022/10/16 11:51:42;;;;;;;3.97;2.90;;;;;;;;;;5006785;28;20061;-43
2022/10/16 11:54:10;;;;;;;4.27;2.13;;;;;;;;;;5003739;28;20038;-48
2022/10/16 11:56:40;;;;;;;2.30;1.80;;;;;;;;;;5004218;28;20478;-44
2022/10/16 11:59:28;;;;;;;2.67;2.00;;;;;;;;;;4999331;28;20105;-44
2022/10/16 12:02:09;;;;;;;3.40;2.38;;;;;;;;;;5008426;28;20391;-47
2022/10/16 12:04:49;;;;;;;4.85;2.38;;;;;;;;;;4997907;28;20053;-44
2022/10/16 12:07:24;;;;;;;3.35;2.03;;;;;;;;;;5002817;28;20081;-46
2022/10/16 12:09:50;;;;;;;3.95;2.30;;;;;;;;;;5005630;28;20037;-45
2022/10/16 12:12:38;;;;;;;3.10;1.98;;;;;;;;;;5004243;28;20033;-44
2022/10/16 12:15:29;;;;;;;4.25;1.90;;;;;;;;;;5004419;28;20088;-44
2022/10/16 12:17:56;;;;;;;4.85;1.95;;;;;;;;;;5005414;28;20037;-48
2022/10/16 12:20:26;;;;;;;3.55;1.92;;;;;;;;;;5010202;28;20030;-48
2022/10/16 12:23:06;;;;;;;3.10;2.10;;;;;;;;;;5009001;28;20030;-44
2022/10/16 12:25:39;;;;;;;4.60;2.20;;;;;;;;;;5007730;28;20133;-45
2022/10/16 12:28:20;;;;;;;5.90;2.30;;;;;;;;;;5010441;28;20482;-45
2022/10/16 12:31:04;;;;;;;18.70;2.60;;;;;;;;;;5006632;28;20042;-43
2022/10/16 12:33:34;;;;;;;2.95;1.90;;;;;;;;;;5010321;28;20044;-45
2022/10/16 12:36:02;;;;;;;4.15;2.10;;;;;;;;;;5010881;28;20044;-45
2022/10/16 12:38:37;;;;;;;5.88;2.20;;;;;;;;;;5006364;28;20118;-46
2022/10/16 12:41:08;;;;;;;6.07;2.20;;;;;;;;;;5010182;28;20054;-45
2022/10/16 12:43:39;;;;;;;18.48;2.47;;;;;;;;;;5010681;28;20032;-47
2022/10/16 12:46:10;;;;;;;7.18;1.92;;;;;;;;;;5010390;28;20042;-44
2022/10/16 12:48:38;;;;;;;5.93;2.47;;;;;;;;;;5007381;28;20126;-46
2022/10/16 12:51:21;;;;;;;2.40;2.10;;;;;;;;;;5011149;28;20041;-45
2022/10/16 12:54:00;;;;;;;2.10;1.52;;;;;;;;;;5011609;28;20080;-46
2022/10/16 12:56:57;;;;;;;14.50;2.35;;;;;;;;;;5009830;28;20821;-45
2022/10/16 12:59:42;;;;;;;3.88;1.98;;;;;;;;;;5008759;28;20556;-45
2022/10/16 13:02:26;;;;;;;2.72;1.90;;;;;;;;;;5004409;28;20148;-43
2022/10/16 13:05:10;;;;;;;3.45;2.08;;;;;;;;;;5009782;28;20041;-44
2022/10/16 13:07:44;;;;;;;4.30;2.28;;;;;;;;;;5009613;28;20029;-46
2022/10/16 13:10:16;;;;;;;8.10;1.90;;;;;;;;;;5009045;28;20048;-44
2022/10/16 13:12:41;;;;;;;;;;;;;;;;;;5007137;28;20029;-47
2022/10/16 13:15:27;;;;;;;3.95;1.95;;;;;;;;;;5005916;28;19921;-43
2022/10/16 13:17:58;;;;;;;4.97;2.08;;;;;;;;;;5002341;28;20037;-45
2022/10/16 13:20:42;;;;;;;4.65;2.03;;;;;;;;;;5009154;28;20498;-49
2022/10/16 13:23:25;;;;;;;7.72;2.28;;;;;;;;;;5010377;28;20057;-44
2022/10/16 13:26:22;;;;;;;6.43;2.00;;;;;;;;;;5008153;28;20038;-47
2022/10/16 13:28:47;;;;;;;4.63;2.13;;;;;;;;;;5009707;28;20383;-44
2022/10/16 13:31:24;;;;;;;4.63;2.40;;;;;;;;;;5010643;28;20049;-46
2022/10/16 13:33:54;;;;;;;5.88;2.15;;;;;;;;;;5000705;28;20022;-43
2022/10/16 13:36:25;;;;;;;3.22;1.95;;;;;;;;;;5008757;28;20048;-45
2022/10/16 13:39:29;;;;;;;5.18;2.20;;;;;;;;;;5009274;28;20486;-48
2022/10/16 13:42:13;;;;;;;5.78;2.10;;;;;;;;;;5005719;28;20068;-48
2022/10/16 13:44:50;;;;;;;3.38;2.00;;;;;;;;;;5006603;28;20049;-47
2022/10/16 13:47:24;;;;;;;5.15;2.38;;;;;;;;;;5008550;28;20107;-45
2022/10/16 13:50:19;;;;;;;4.05;2.22;;;;;;;;;;5008346;28;20104;-45
2022/10/16 13:52:45;;;;;;;4.97;2.50;;;;;;;;;;4992149;28;20089;-46
2022/10/16 13:55:19;;;;;;;2.88;1.95;;;;;;;;;;5008329;28;20511;-45
2022/10/16 13:57:44;;;;;;;5.70;2.65;;;;;;;;;;5003791;28;20021;-48
2022/10/16 14:00:21;;;;;;;2.90;2.08;;;;;;;;;;5008928;28;20384;-44
2022/10/16 14:02:55;;;;;;;7.00;2.13;;;;;;;;;;5005548;28;20206;-46
2022/10/16 14:05:20;;;;;;;3.92;1.90;;;;;;;;;;5006553;28;20034;-44
2022/10/16 14:07:51;;;;;;;4.85;2.35;;;;;;;;;;5010105;28;20034;-43
2022/10/16 14:10:29;;;;;;;7.05;1.85;;;;;;;;;;5008567;28;20499;-47
2022/10/16 14:12:57;;;;;;;4.20;2.00;;;;;;;;;;5007237;28;20038;-45
2022/10/16 14:15:23;;;;;;;5.47;2.17;;;;;;;;;;5005082;28;20487;-44
2022/10/16 14:17:51;;;;;;;5.80;2.00;;;;;;;;;;5007563;28;20036;-51
2022/10/16 14:20:17;;;;;;;5.57;2.17;;;;;;;;;;5008890;28;20045;-46
2022/10/16 14:22:43;;;;;;;5.55;2.17;;;;;;;;;;5008546;28;20014;-46
2022/10/16 14:25:21;;;;;;;8.07;1.85;;;;;;;;;;5008487;28;20107;-46
2022/10/16 14:28:01;;;;;;;3.85;2.10;;;;;;;;;;5010636;28;20029;-46
2022/10/16 14:30:29;;;;;;;4.45;2.30;;;;;;;;;;5005914;28;20398;-43
2022/10/16 14:32:58;;;;;;;12.30;2.05;;;;;;;;;;5007159;28;20083;-44
2022/10/16 14:35:26;;;;;;;5.15;2.08;;;;;;;;;;5006821;28;20048;-45
2022/10/16 14:37:56;;;;;;;5.50;2.20;;;;;;;;;;5006379;28;20092;-43
2022/10/16 14:40:36;;;;;;;7.00;2.40;;;;;;;;;;5009372;28;20072;-45
2022/10/16 14:43:03;;;;;;;10.93;2.17;;;;;;;;;;5007302;28;20108;-48
2022/10/16 14:45:32;;;;;;;4.80;1.90;;;;;;;;;;5005392;28;20042;-45
2022/10/16 14:48:17;;;;;;;5.97;1.80;;;;;;;;;;5005354;28;20470;-45
2022/10/16 14:50:43;;;;;;;3.50;2.05;;;;;;;;;;5004866;28;20125;-46
2022/10/16 14:53:11;;;;;;;4.60;2.05;;;;;;;;;;5008296;28;20108;-43
2022/10/16 14:55:38;;;;;;;7.47;2.20;;;;;;;;;;5002498;28;20045;-43
2022/10/16 14:58:03;;;;;;;2.95;1.90;;;;;;;;;;5005638;28;20065;-45
2022/10/16 15:00:28;;;;;;;7.15;2.00;;;;;;;;;;5005312;28;20045;-48
2022/10/16 15:02:54;;;;;;;5.35;2.13;;;;;;;;;;5006882;28;20459;-48
2022/10/16 15:05:26;;;;;;;3.35;1.90;;;;;;;;;;5007540;28;20038;-43